sensor_id;sensor_type;location;lat;lon;timestamp;P1;durP1;ratioP1;P2;durP2;ratioP2
21270;SDS011;10795;50.796;3.860;2023-10-19T00:01:10;4.30;;;0.47;;
21270;SDS011;10795;50.796;3.860;2023-10-19T00:06:02;1.33;;;0.45;;
21270;SDS011;10795;50.796;3.860;2023-10-19T00:08:30;4.07;;;0.70;;
21270;SDS011;10795;50.796;3.860;2023-10-19T00:11:19;1.48;;;0.43;;
21270;SDS011;10795;50.796;3.860;2023-10-19T00:13:48;2.28;;;0.63;;
21270;SDS011;10795;50.796;3.860;2023-10-19T00:16:19;2.50;;;0.60;;
21270;SDS011;10795;50.796;3.860;2023-10-19T00:18:49;3.35;;;0.68;;
21270;SDS011;10795;50.796;3.860;2023-10-19T00:21:20;2.92;;;0.82;;
21270;SDS011;10795;50.796;3.860;2023-10-19T00:23:47;3.22;;;0.50;;
21270;SDS011;10795;50.796;3.860;2023-10-19T00:26:17;2.85;;;0.82;;
21270;SDS011;10795;50.796;3.860;2023-10-19T00:28:59;5.85;;;0.80;;
21270;SDS011;10795;50.796;3.860;2023-10-19T00:31:38;3.90;;;0.60;;
21270;SDS011;10795;50.796;3.860;2023-10-19T00:34:05;2.38;;;0.65;;
21270;SDS011;10795;50.796;3.860;2023-10-19T00:36:34;1.98;;;0.52;;
21270;SDS011;10795;50.796;3.860;2023-10-19T00:39:04;2.55;;;0.55;;
21270;SDS011;10795;50.796;3.860;2023-10-19T00:41:39;5.03;;;0.60;;
21270;SDS011;10795;50.796;3.860;2023-10-19T00:44:06;2.67;;;0.60;;
21270;SDS011;10795;50.796;3.860;2023-10-19T00:46:36;4.35;;;0.73;;
21270;SDS011;10795;50.796;3.860;2023-10-19T00:49:13;3.72;;;0.52;;
21270;SDS011;10795;50.796;3.860;2023-10-19T00:51:43;3.45;;;0.50;;
21270;SDS011;10795;50.796;3.860;2023-10-19T00:54:17;2.08;;;0.43;;
21270;SDS011;10795;50.796;3.860;2023-10-19T00:57:08;3.10;;;0.47;;
21270;SDS011;10795;50.796;3.860;2023-10-19T00:59:40;3.65;;;0.95;;
21270;SDS011;10795;50.796;3.860;2023-10-19T01:02:12;2.20;;;0.52;;
21270;SDS011;10795;50.796;3.860;2023-10-19T01:04:54;2.00;;;0.40;;
21270;SDS011;10795;50.796;3.860;2023-10-19T01:07:28;3.60;;;0.52;;
21270;SDS011;10795;50.796;3.860;2023-10-19T01:09:55;3.75;;;0.70;;
21270;SDS011;10795;50.796;3.860;2023-10-19T01:12:24;1.45;;;0.47;;
21270;SDS011;10795;50.796;3.860;2023-10-19T01:17:43;3.35;;;0.80;;
21270;SDS011;10795;50.796;3.860;2023-10-19T01:20:12;4.53;;;0.55;;
21270;SDS011;10795;50.796;3.860;2023-10-19T01:25:42;5.45;;;0.73;;
21270;SDS011;10795;50.796;3.860;2023-10-19T01:28:16;5.68;;;0.60;;
21270;SDS011;10795;50.796;3.860;2023-10-19T01:30:42;2.83;;;0.90;;
21270;SDS011;10795;50.796;3.860;2023-10-19T01:33:17;3.00;;;0.60;;
21270;SDS011;10795;50.796;3.860;2023-10-19T01:35:48;4.53;;;1.10;;
21270;SDS011;10795;50.796;3.860;2023-10-19T01:38:32;3.45;;;0.80;;
21270;SDS011;10795;50.796;3.860;2023-10-19T01:40:59;5.15;;;0.90;;
21270;SDS011;10795;50.796;3.860;2023-10-19T01:43:29;3.65;;;0.82;;
21270;SDS011;10795;50.796;3.860;2023-10-19T01:46:00;5.40;;;0.82;;
21270;SDS011;10795;50.796;3.860;2023-10-19T01:48:37;4.40;;;0.73;;
21270;SDS011;10795;50.796;3.860;2023-10-19T01:51:06;4.10;;;1.05;;
21270;SDS011;10795;50.796;3.860;2023-10-19T01:53:39;7.38;;;1.13;;
21270;SDS011;10795;50.796;3.860;2023-10-19T01:56:13;3.67;;;0.80;;
21270;SDS011;10795;50.796;3.860;2023-10-19T01:58:40;4.30;;;1.20;;
21270;SDS011;10795;50.796;3.860;2023-10-19T02:01:07;4.38;;;0.88;;
21270;SDS011;10795;50.796;3.860;2023-10-19T02:03:37;3.53;;;0.90;;
21270;SDS011;10795;50.796;3.860;2023-10-19T02:06:07;3.65;;;1.10;;
21270;SDS011;10795;50.796;3.860;2023-10-19T02:08:45;4.35;;;0.90;;
21270;SDS011;10795;50.796;3.860;2023-10-19T02:11:20;3.05;;;0.80;;
21270;SDS011;10795;50.796;3.860;2023-10-19T02:13:47;8.60;;;1.00;;
21270;SDS011;10795;50.796;3.860;2023-10-19T02:16:21;5.85;;;1.10;;
21270;SDS011;10795;50.796;3.860;2023-10-19T02:18:48;4.75;;;0.77;;
21270;SDS011;10795;50.796;3.860;2023-10-19T02:21:15;3.75;;;0.90;;
21270;SDS011;10795;50.796;3.860;2023-10-19T02:23:47;6.05;;;0.95;;
21270;SDS011;10795;50.796;3.860;2023-10-19T02:26:20;5.90;;;1.10;;
21270;SDS011;10795;50.796;3.860;2023-10-19T02:28:50;5.43;;;0.82;;
21270;SDS011;10795;50.796;3.860;2023-10-19T02:31:16;3.92;;;1.05;;
21270;SDS011;10795;50.796;3.860;2023-10-19T02:33:52;5.28;;;0.90;;
21270;SDS011;10795;50.796;3.860;2023-10-19T02:36:29;5.97;;;1.30;;
21270;SDS011;10795;50.796;3.860;2023-10-19T02:38:58;8.10;;;1.30;;
21270;SDS011;10795;50.796;3.860;2023-10-19T02:41:36;9.60;;;1.55;;
21270;SDS011;10795;50.796;3.860;2023-10-19T02:44:04;5.57;;;1.00;;
21270;SDS011;10795;50.796;3.860;2023-10-19T02:46:39;4.22;;;1.33;;
21270;SDS011;10795;50.796;3.860;2023-10-19T02:49:08;2.90;;;0.90;;
21270;SDS011;10795;50.796;3.860;2023-10-19T02:51:40;8.40;;;1.35;;
21270;SDS011;10795;50.796;3.860;2023-10-19T02:54:10;6.88;;;1.05;;
21270;SDS011;10795;50.796;3.860;2023-10-19T02:56:45;7.90;;;1.48;;
21270;SDS011;10795;50.796;3.860;2023-10-19T02:59:16;7.82;;;1.13;;
21270;SDS011;10795;50.796;3.860;2023-10-19T03:01:47;7.95;;;1.15;;
21270;SDS011;10795;50.796;3.860;2023-10-19T03:06:43;4.50;;;1.20;;
21270;SDS011;10795;50.796;3.860;2023-10-19T03:09:09;6.72;;;0.90;;
21270;SDS011;10795;50.796;3.860;2023-10-19T03:11:47;5.53;;;0.82;;
21270;SDS011;10795;50.796;3.860;2023-10-19T03:14:18;8.30;;;1.33;;
21270;SDS011;10795;50.796;3.860;2023-10-19T03:16:44;3.72;;;0.95;;
21270;SDS011;10795;50.796;3.860;2023-10-19T03:19:11;8.82;;;1.27;;
21270;SDS011;10795;50.796;3.860;2023-10-19T03:21:38;7.57;;;1.15;;
21270;SDS011;10795;50.796;3.860;2023-10-19T03:24:26;5.43;;;1.02;;
21270;SDS011;10795;50.796;3.860;2023-10-19T03:27:14;4.72;;;0.77;;
21270;SDS011;10795;50.796;3.860;2023-10-19T03:29:47;5.38;;;1.00;;
21270;SDS011;10795;50.796;3.860;2023-10-19T03:32:22;3.38;;;0.85;;
21270;SDS011;10795;50.796;3.860;2023-10-19T03:37:21;4.57;;;0.80;;
21270;SDS011;10795;50.796;3.860;2023-10-19T03:39:50;7.07;;;1.17;;
21270;SDS011;10795;50.796;3.860;2023-10-19T03:42:17;4.68;;;1.00;;
21270;SDS011;10795;50.796;3.860;2023-10-19T03:44:45;7.78;;;0.90;;
21270;SDS011;10795;50.796;3.860;2023-10-19T03:47:14;6.40;;;1.05;;
21270;SDS011;10795;50.796;3.860;2023-10-19T03:49:44;6.95;;;0.98;;
21270;SDS011;10795;50.796;3.860;2023-10-19T03:52:12;4.20;;;1.08;;
21270;SDS011;10795;50.796;3.860;2023-10-19T03:54:39;6.85;;;1.45;;
21270;SDS011;10795;50.796;3.860;2023-10-19T03:57:09;6.70;;;1.40;;
21270;SDS011;10795;50.796;3.860;2023-10-19T03:59:40;5.75;;;0.98;;
21270;SDS011;10795;50.796;3.860;2023-10-19T04:02:10;5.60;;;1.13;;
21270;SDS011;10795;50.796;3.860;2023-10-19T04:04:42;6.20;;;1.20;;
21270;SDS011;10795;50.796;3.860;2023-10-19T04:07:11;4.82;;;1.10;;
21270;SDS011;10795;50.796;3.860;2023-10-19T04:09:53;10.00;;;1.48;;
21270;SDS011;10795;50.796;3.860;2023-10-19T04:12:49;8.48;;;1.13;;
21270;SDS011;10795;50.796;3.860;2023-10-19T04:15:15;4.68;;;1.13;;
21270;SDS011;10795;50.796;3.860;2023-10-19T04:17:42;7.85;;;1.00;;
21270;SDS011;10795;50.796;3.860;2023-10-19T04:20:13;6.93;;;0.88;;
21270;SDS011;10795;50.796;3.860;2023-10-19T04:22:46;5.40;;;1.10;;
21270;SDS011;10795;50.796;3.860;2023-10-19T04:25:18;5.93;;;1.27;;
21270;SDS011;10795;50.796;3.860;2023-10-19T04:27:45;8.32;;;1.08;;
21270;SDS011;10795;50.796;3.860;2023-10-19T04:30:13;10.32;;;1.73;;
21270;SDS011;10795;50.796;3.860;2023-10-19T04:32:49;7.47;;;1.42;;
21270;SDS011;10795;50.796;3.860;2023-10-19T04:35:18;6.38;;;1.17;;
21270;SDS011;10795;50.796;3.860;2023-10-19T04:37:50;6.15;;;0.98;;
21270;SDS011;10795;50.796;3.860;2023-10-19T04:40:18;6.03;;;1.52;;
21270;SDS011;10795;50.796;3.860;2023-10-19T04:42:44;3.90;;;1.20;;
21270;SDS011;10795;50.796;3.860;2023-10-19T04:45:11;7.28;;;1.35;;
21270;SDS011;10795;50.796;3.860;2023-10-19T04:47:38;7.30;;;1.20;;
21270;SDS011;10795;50.796;3.860;2023-10-19T04:50:04;5.80;;;1.58;;
21270;SDS011;10795;50.796;3.860;2023-10-19T04:52:31;7.20;;;1.10;;
21270;SDS011;10795;50.796;3.860;2023-10-19T04:54:58;6.45;;;1.00;;
21270;SDS011;10795;50.796;3.860;2023-10-19T04:57:24;5.65;;;1.10;;
21270;SDS011;10795;50.796;3.860;2023-10-19T04:59:51;7.20;;;1.33;;
21270;SDS011;10795;50.796;3.860;2023-10-19T05:02:17;6.97;;;1.15;;
21270;SDS011;10795;50.796;3.860;2023-10-19T05:04:44;8.30;;;1.20;;
21270;SDS011;10795;50.796;3.860;2023-10-19T05:07:17;4.30;;;1.00;;
21270;SDS011;10795;50.796;3.860;2023-10-19T05:09:43;5.45;;;1.23;;
21270;SDS011;10795;50.796;3.860;2023-10-19T05:12:12;5.72;;;1.05;;
21270;SDS011;10795;50.796;3.860;2023-10-19T05:14:42;7.95;;;1.38;;
21270;SDS011;10795;50.796;3.860;2023-10-19T05:17:10;7.13;;;1.30;;
21270;SDS011;10795;50.796;3.860;2023-10-19T05:19:37;8.93;;;1.33;;
21270;SDS011;10795;50.796;3.860;2023-10-19T05:22:08;10.02;;;1.52;;
21270;SDS011;10795;50.796;3.860;2023-10-19T05:24:40;10.32;;;1.42;;
21270;SDS011;10795;50.796;3.860;2023-10-19T05:27:07;11.32;;;1.83;;
21270;SDS011;10795;50.796;3.860;2023-10-19T05:29:34;6.13;;;1.30;;
21270;SDS011;10795;50.796;3.860;2023-10-19T05:32:04;4.20;;;1.02;;
21270;SDS011;10795;50.796;3.860;2023-10-19T05:34:30;8.98;;;1.30;;
21270;SDS011;10795;50.796;3.860;2023-10-19T05:36:58;6.70;;;1.30;;
21270;SDS011;10795;50.796;3.860;2023-10-19T05:39:29;10.90;;;1.48;;
21270;SDS011;10795;50.796;3.860;2023-10-19T05:41:56;8.40;;;1.40;;
21270;SDS011;10795;50.796;3.860;2023-10-19T05:44:26;9.27;;;1.20;;
21270;SDS011;10795;50.796;3.860;2023-10-19T05:46:55;9.18;;;1.30;;
21270;SDS011;10795;50.796;3.860;2023-10-19T05:49:22;9.18;;;1.52;;
21270;SDS011;10795;50.796;3.860;2023-10-19T05:51:49;10.23;;;1.40;;
21270;SDS011;10795;50.796;3.860;2023-10-19T05:54:15;6.50;;;1.75;;
21270;SDS011;10795;50.796;3.860;2023-10-19T05:56:42;10.70;;;1.70;;
21270;SDS011;10795;50.796;3.860;2023-10-19T05:59:08;6.28;;;1.20;;
21270;SDS011;10795;50.796;3.860;2023-10-19T06:01:35;5.53;;;1.00;;
21270;SDS011;10795;50.796;3.860;2023-10-19T06:04:02;8.65;;;1.40;;
21270;SDS011;10795;50.796;3.860;2023-10-19T06:06:28;7.85;;;1.45;;
21270;SDS011;10795;50.796;3.860;2023-10-19T06:08:54;8.68;;;1.52;;
21270;SDS011;10795;50.796;3.860;2023-10-19T06:11:21;11.75;;;1.42;;
21270;SDS011;10795;50.796;3.860;2023-10-19T06:13:47;6.85;;;1.42;;
21270;SDS011;10795;50.796;3.860;2023-10-19T06:16:15;12.32;;;1.80;;
21270;SDS011;10795;50.796;3.860;2023-10-19T06:18:42;5.65;;;1.83;;
21270;SDS011;10795;50.796;3.860;2023-10-19T06:21:08;7.63;;;1.35;;
21270;SDS011;10795;50.796;3.860;2023-10-19T06:23:35;8.68;;;1.60;;
21270;SDS011;10795;50.796;3.860;2023-10-19T06:26:08;8.05;;;1.90;;
21270;SDS011;10795;50.796;3.860;2023-10-19T06:28:39;12.02;;;2.25;;
21270;SDS011;10795;50.796;3.860;2023-10-19T06:31:06;12.63;;;2.45;;
21270;SDS011;10795;50.796;3.860;2023-10-19T06:33:37;9.35;;;2.22;;
21270;SDS011;10795;50.796;3.860;2023-10-19T06:36:06;12.02;;;2.15;;
21270;SDS011;10795;50.796;3.860;2023-10-19T06:38:37;13.48;;;1.90;;
21270;SDS011;10795;50.796;3.860;2023-10-19T06:41:10;11.48;;;1.80;;
21270;SDS011;10795;50.796;3.860;2023-10-19T06:43:41;8.65;;;1.50;;
21270;SDS011;10795;50.796;3.860;2023-10-19T06:46:07;13.57;;;2.22;;
21270;SDS011;10795;50.796;3.860;2023-10-19T06:48:38;12.55;;;1.95;;
21270;SDS011;10795;50.796;3.860;2023-10-19T06:51:04;11.43;;;1.77;;
21270;SDS011;10795;50.796;3.860;2023-10-19T06:53:34;13.00;;;1.97;;
21270;SDS011;10795;50.796;3.860;2023-10-19T06:56:00;9.18;;;1.92;;
21270;SDS011;10795;50.796;3.860;2023-10-19T06:58:26;11.93;;;1.70;;
21270;SDS011;10795;50.796;3.860;2023-10-19T07:00:52;10.00;;;1.50;;
21270;SDS011;10795;50.796;3.860;2023-10-19T07:03:33;13.45;;;2.03;;
21270;SDS011;10795;50.796;3.860;2023-10-19T07:05:59;8.90;;;1.30;;
21270;SDS011;10795;50.796;3.860;2023-10-19T07:08:30;11.77;;;1.63;;
21270;SDS011;10795;50.796;3.860;2023-10-19T07:10:56;11.73;;;2.22;;
21270;SDS011;10795;50.796;3.860;2023-10-19T07:13:22;9.88;;;1.73;;
21270;SDS011;10795;50.796;3.860;2023-10-19T07:15:53;12.35;;;1.88;;
21270;SDS011;10795;50.796;3.860;2023-10-19T07:18:22;12.13;;;2.15;;
21270;SDS011;10795;50.796;3.860;2023-10-19T07:20:49;10.60;;;2.63;;
21270;SDS011;10795;50.796;3.860;2023-10-19T07:23:15;8.82;;;1.73;;
21270;SDS011;10795;50.796;3.860;2023-10-19T07:25:47;11.50;;;1.97;;
21270;SDS011;10795;50.796;3.860;2023-10-19T07:28:18;11.15;;;2.83;;
21270;SDS011;10795;50.796;3.860;2023-10-19T07:30:44;10.07;;;1.88;;
21270;SDS011;10795;50.796;3.860;2023-10-19T07:33:16;8.32;;;1.98;;
21270;SDS011;10795;50.796;3.860;2023-10-19T07:35:43;8.63;;;1.98;;
21270;SDS011;10795;50.796;3.860;2023-10-19T07:38:14;14.55;;;2.33;;
21270;SDS011;10795;50.796;3.860;2023-10-19T07:40:42;14.25;;;2.10;;
21270;SDS011;10795;50.796;3.860;2023-10-19T07:43:11;13.73;;;2.30;;
21270;SDS011;10795;50.796;3.860;2023-10-19T07:45:37;9.55;;;1.95;;
21270;SDS011;10795;50.796;3.860;2023-10-19T07:48:04;10.88;;;1.92;;
21270;SDS011;10795;50.796;3.860;2023-10-19T07:50:36;13.02;;;2.17;;
21270;SDS011;10795;50.796;3.860;2023-10-19T07:53:06;8.45;;;2.15;;
21270;SDS011;10795;50.796;3.860;2023-10-19T07:55:32;12.18;;;2.40;;
21270;SDS011;10795;50.796;3.860;2023-10-19T07:57:58;11.75;;;2.55;;
21270;SDS011;10795;50.796;3.860;2023-10-19T08:00:33;11.15;;;2.00;;
21270;SDS011;10795;50.796;3.860;2023-10-19T08:02:59;12.25;;;1.92;;
21270;SDS011;10795;50.796;3.860;2023-10-19T08:05:25;10.52;;;1.67;;
21270;SDS011;10795;50.796;3.860;2023-10-19T08:07:51;9.68;;;2.28;;
21270;SDS011;10795;50.796;3.860;2023-10-19T08:10:18;13.45;;;2.63;;
21270;SDS011;10795;50.796;3.860;2023-10-19T08:12:45;12.15;;;2.08;;
21270;SDS011;10795;50.796;3.860;2023-10-19T08:15:13;14.35;;;2.15;;
21270;SDS011;10795;50.796;3.860;2023-10-19T08:17:47;11.10;;;2.13;;
21270;SDS011;10795;50.796;3.860;2023-10-19T08:20:16;12.93;;;2.38;;
21270;SDS011;10795;50.796;3.860;2023-10-19T08:22:45;12.33;;;2.37;;
21270;SDS011;10795;50.796;3.860;2023-10-19T08:25:13;7.10;;;1.83;;
21270;SDS011;10795;50.796;3.860;2023-10-19T08:27:42;11.27;;;2.00;;
21270;SDS011;10795;50.796;3.860;2023-10-19T08:30:22;12.95;;;2.55;;
21270;SDS011;10795;50.796;3.860;2023-10-19T08:32:50;12.05;;;1.90;;
21270;SDS011;10795;50.796;3.860;2023-10-19T08:35:17;10.88;;;1.92;;
21270;SDS011;10795;50.796;3.860;2023-10-19T08:37:51;13.32;;;2.28;;
21270;SDS011;10795;50.796;3.860;2023-10-19T08:40:18;15.77;;;2.33;;
21270;SDS011;10795;50.796;3.860;2023-10-19T08:42:45;12.52;;;1.67;;
21270;SDS011;10795;50.796;3.860;2023-10-19T08:45:14;15.82;;;2.13;;
21270;SDS011;10795;50.796;3.860;2023-10-19T08:50:14;14.55;;;2.20;;
21270;SDS011;10795;50.796;3.860;2023-10-19T08:52:42;13.75;;;2.67;;
21270;SDS011;10795;50.796;3.860;2023-10-19T08:55:11;6.80;;;1.63;;
21270;SDS011;10795;50.796;3.860;2023-10-19T08:57:39;9.93;;;2.22;;
21270;SDS011;10795;50.796;3.860;2023-10-19T09:00:14;8.65;;;1.80;;
21270;SDS011;10795;50.796;3.860;2023-10-19T09:02:44;16.48;;;2.60;;
21270;SDS011;10795;50.796;3.860;2023-10-19T09:05:13;14.98;;;2.35;;
21270;SDS011;10795;50.796;3.860;2023-10-19T09:07:50;11.10;;;2.42;;
21270;SDS011;10795;50.796;3.860;2023-10-19T09:13:01;13.20;;;2.92;;
21270;SDS011;10795;50.796;3.860;2023-10-19T09:15:29;16.50;;;3.70;;
21270;SDS011;10795;50.796;3.860;2023-10-19T09:17:58;11.98;;;3.03;;
21270;SDS011;10795;50.796;3.860;2023-10-19T09:20:38;14.77;;;3.95;;
21270;SDS011;10795;50.796;3.860;2023-10-19T09:23:04;11.35;;;3.55;;
21270;SDS011;10795;50.796;3.860;2023-10-19T09:25:32;11.93;;;3.15;;
21270;SDS011;10795;50.796;3.860;2023-10-19T09:28:00;19.58;;;3.85;;
21270;SDS011;10795;50.796;3.860;2023-10-19T09:30:30;11.85;;;2.78;;
21270;SDS011;10795;50.796;3.860;2023-10-19T09:32:57;16.45;;;2.97;;
21270;SDS011;10795;50.796;3.860;2023-10-19T09:35:24;13.10;;;2.72;;
21270;SDS011;10795;50.796;3.860;2023-10-19T09:37:53;15.88;;;3.28;;
21270;SDS011;10795;50.796;3.860;2023-10-19T09:40:20;12.75;;;2.88;;
21270;SDS011;10795;50.796;3.860;2023-10-19T09:42:47;16.10;;;2.75;;
21270;SDS011;10795;50.796;3.860;2023-10-19T09:45:19;13.88;;;2.92;;
21270;SDS011;10795;50.796;3.860;2023-10-19T09:47:49;8.43;;;2.50;;
21270;SDS011;10795;50.796;3.860;2023-10-19T09:50:16;9.52;;;2.95;;
21270;SDS011;10795;50.796;3.860;2023-10-19T09:52:44;15.75;;;3.58;;
21270;SDS011;10795;50.796;3.860;2023-10-19T09:57:59;15.07;;;3.50;;
21270;SDS011;10795;50.796;3.860;2023-10-19T10:00:57;19.30;;;3.30;;
21270;SDS011;10795;50.796;3.860;2023-10-19T10:08:53;11.07;;;3.08;;
21270;SDS011;10795;50.796;3.860;2023-10-19T10:11:21;8.90;;;3.22;;
21270;SDS011;10795;50.796;3.860;2023-10-19T10:13:51;12.20;;;3.88;;
21270;SDS011;10795;50.796;3.860;2023-10-19T10:16:19;15.93;;;4.32;;
21270;SDS011;10795;50.796;3.860;2023-10-19T10:18:58;12.32;;;3.75;;
21270;SDS011;10795;50.796;3.860;2023-10-19T10:21:25;13.57;;;4.38;;
21270;SDS011;10795;50.796;3.860;2023-10-19T10:23:56;16.02;;;4.45;;
21270;SDS011;10795;50.796;3.860;2023-10-19T10:26:25;18.23;;;5.30;;
21270;SDS011;10795;50.796;3.860;2023-10-19T10:29:15;18.35;;;5.47;;
21270;SDS011;10795;50.796;3.860;2023-10-19T10:31:49;16.17;;;4.65;;
21270;SDS011;10795;50.796;3.860;2023-10-19T10:37:08;11.75;;;4.70;;
21270;SDS011;10795;50.796;3.860;2023-10-19T10:39:36;13.13;;;4.70;;
21270;SDS011;10795;50.796;3.860;2023-10-19T10:42:06;15.07;;;4.95;;
21270;SDS011;10795;50.796;3.860;2023-10-19T10:44:40;16.10;;;5.15;;
21270;SDS011;10795;50.796;3.860;2023-10-19T10:47:16;13.20;;;4.33;;
21270;SDS011;10795;50.796;3.860;2023-10-19T10:49:49;12.35;;;4.45;;
21270;SDS011;10795;50.796;3.860;2023-10-19T10:55:06;12.57;;;4.43;;
21270;SDS011;10795;50.796;3.860;2023-10-19T10:57:38;14.45;;;4.55;;
21270;SDS011;10795;50.796;3.860;2023-10-19T11:00:13;17.33;;;5.55;;
21270;SDS011;10795;50.796;3.860;2023-10-19T11:02:41;17.73;;;5.00;;
21270;SDS011;10795;50.796;3.860;2023-10-19T11:05:08;15.93;;;5.30;;
21270;SDS011;10795;50.796;3.860;2023-10-19T11:07:37;11.50;;;4.07;;
21270;SDS011;10795;50.796;3.860;2023-10-19T11:10:04;19.00;;;5.25;;
21270;SDS011;10795;50.796;3.860;2023-10-19T11:12:31;13.90;;;4.20;;
21270;SDS011;10795;50.796;3.860;2023-10-19T11:14:58;16.05;;;3.33;;
21270;SDS011;10795;50.796;3.860;2023-10-19T11:17:25;9.63;;;3.40;;
21270;SDS011;10795;50.796;3.860;2023-10-19T11:19:56;10.73;;;2.85;;
21270;SDS011;10795;50.796;3.860;2023-10-19T11:22:23;9.57;;;2.63;;
21270;SDS011;10795;50.796;3.860;2023-10-19T11:24:52;8.13;;;2.53;;
21270;SDS011;10795;50.796;3.860;2023-10-19T11:29:57;8.73;;;2.90;;
21270;SDS011;10795;50.796;3.860;2023-10-19T11:32:25;9.40;;;2.75;;
21270;SDS011;10795;50.796;3.860;2023-10-19T11:34:52;5.65;;;2.03;;
21270;SDS011;10795;50.796;3.860;2023-10-19T11:37:19;7.50;;;2.45;;
21270;SDS011;10795;50.796;3.860;2023-10-19T11:39:45;5.18;;;2.22;;
21270;SDS011;10795;50.796;3.860;2023-10-19T11:42:11;8.68;;;2.58;;
21270;SDS011;10795;50.796;3.860;2023-10-19T11:44:37;9.32;;;2.88;;
21270;SDS011;10795;50.796;3.860;2023-10-19T11:47:04;6.20;;;2.85;;
21270;SDS011;10795;50.796;3.860;2023-10-19T11:49:30;9.50;;;2.83;;
21270;SDS011;10795;50.796;3.860;2023-10-19T11:51:56;7.53;;;2.67;;
21270;SDS011;10795;50.796;3.860;2023-10-19T11:54:22;8.23;;;2.72;;
21270;SDS011;10795;50.796;3.860;2023-10-19T11:56:48;7.15;;;2.30;;
21270;SDS011;10795;50.796;3.860;2023-10-19T11:59:17;5.03;;;1.90;;
21270;SDS011;10795;50.796;3.860;2023-10-19T12:01:51;5.57;;;2.10;;
21270;SDS011;10795;50.796;3.860;2023-10-19T12:04:17;5.32;;;1.50;;
21270;SDS011;10795;50.796;3.860;2023-10-19T12:06:43;4.70;;;1.80;;
21270;SDS011;10795;50.796;3.860;2023-10-19T12:09:11;4.07;;;1.52;;
21270;SDS011;10795;50.796;3.860;2023-10-19T12:11:43;5.72;;;1.35;;
21270;SDS011;10795;50.796;3.860;2023-10-19T12:14:09;2.55;;;1.30;;
21270;SDS011;10795;50.796;3.860;2023-10-19T12:16:41;2.70;;;0.98;;
21270;SDS011;10795;50.796;3.860;2023-10-19T12:19:07;4.25;;;1.30;;
21270;SDS011;10795;50.796;3.860;2023-10-19T12:21:33;4.68;;;1.38;;
21270;SDS011;10795;50.796;3.860;2023-10-19T12:24:03;2.70;;;0.98;;
21270;SDS011;10795;50.796;3.860;2023-10-19T12:26:30;1.92;;;0.93;;
21270;SDS011;10795;50.796;3.860;2023-10-19T12:28:56;3.50;;;0.90;;
21270;SDS011;10795;50.796;3.860;2023-10-19T12:31:24;2.88;;;0.75;;
21270;SDS011;10795;50.796;3.860;2023-10-19T12:33:55;6.45;;;1.40;;
21270;SDS011;10795;50.796;3.860;2023-10-19T12:36:21;2.63;;;0.47;;
21270;SDS011;10795;50.796;3.860;2023-10-19T12:38:56;3.72;;;1.02;;
21270;SDS011;10795;50.796;3.860;2023-10-19T12:41:30;4.72;;;1.00;;
21270;SDS011;10795;50.796;3.860;2023-10-19T12:43:59;4.20;;;1.15;;
21270;SDS011;10795;50.796;3.860;2023-10-19T12:46:38;2.00;;;0.82;;
21270;SDS011;10795;50.796;3.860;2023-10-19T12:49:05;2.90;;;1.17;;
21270;SDS011;10795;50.796;3.860;2023-10-19T12:51:39;3.97;;;1.05;;
21270;SDS011;10795;50.796;3.860;2023-10-19T12:54:07;1.88;;;0.90;;
21270;SDS011;10795;50.796;3.860;2023-10-19T12:56:35;5.90;;;1.95;;
21270;SDS011;10795;50.796;3.860;2023-10-19T12:59:04;6.10;;;2.75;;
21270;SDS011;10795;50.796;3.860;2023-10-19T13:01:33;5.65;;;2.72;;
21270;SDS011;10795;50.796;3.860;2023-10-19T13:04:04;5.07;;;2.55;;
21270;SDS011;10795;50.796;3.860;2023-10-19T13:06:43;8.85;;;3.65;;
21270;SDS011;10795;50.796;3.860;2023-10-19T13:09:12;9.00;;;3.17;;
21270;SDS011;10795;50.796;3.860;2023-10-19T13:11:41;9.23;;;3.35;;
21270;SDS011;10795;50.796;3.860;2023-10-19T13:14:11;8.07;;;3.50;;
21270;SDS011;10795;50.796;3.860;2023-10-19T13:16:37;6.68;;;3.58;;
21270;SDS011;10795;50.796;3.860;2023-10-19T13:19:03;6.85;;;3.30;;
21270;SDS011;10795;50.796;3.860;2023-10-19T13:21:38;6.53;;;3.45;;
21270;SDS011;10795;50.796;3.860;2023-10-19T13:24:04;5.82;;;3.22;;
21270;SDS011;10795;50.796;3.860;2023-10-19T13:26:31;5.40;;;2.60;;
21270;SDS011;10795;50.796;3.860;2023-10-19T13:28:57;8.30;;;3.65;;
21270;SDS011;10795;50.796;3.860;2023-10-19T13:31:23;9.13;;;3.65;;
21270;SDS011;10795;50.796;3.860;2023-10-19T13:33:51;5.85;;;2.42;;
21270;SDS011;10795;50.796;3.860;2023-10-19T13:36:22;5.82;;;2.50;;
21270;SDS011;10795;50.796;3.860;2023-10-19T13:38:48;3.88;;;2.10;;
21270;SDS011;10795;50.796;3.860;2023-10-19T13:41:14;8.52;;;3.15;;
21270;SDS011;10795;50.796;3.860;2023-10-19T13:43:42;4.18;;;1.88;;
21270;SDS011;10795;50.796;3.860;2023-10-19T13:46:12;4.50;;;1.77;;
21270;SDS011;10795;50.796;3.860;2023-10-19T13:48:38;3.60;;;1.58;;
21270;SDS011;10795;50.796;3.860;2023-10-19T13:51:04;6.72;;;1.70;;
21270;SDS011;10795;50.796;3.860;2023-10-19T13:53:40;4.47;;;1.83;;
21270;SDS011;10795;50.796;3.860;2023-10-19T13:56:09;5.97;;;2.50;;
21270;SDS011;10795;50.796;3.860;2023-10-19T13:58:36;9.15;;;4.30;;
21270;SDS011;10795;50.796;3.860;2023-10-19T14:01:06;8.40;;;2.40;;
21270;SDS011;10795;50.796;3.860;2023-10-19T14:03:34;4.15;;;1.80;;
21270;SDS011;10795;50.796;3.860;2023-10-19T14:06:00;5.15;;;2.28;;
21270;SDS011;10795;50.796;3.860;2023-10-19T14:08:26;6.00;;;2.85;;
21270;SDS011;10795;50.796;3.860;2023-10-19T14:10:51;5.65;;;2.78;;
21270;SDS011;10795;50.796;3.860;2023-10-19T14:13:17;5.10;;;1.98;;
21270;SDS011;10795;50.796;3.860;2023-10-19T14:15:43;5.22;;;3.00;;
21270;SDS011;10795;50.796;3.860;2023-10-19T14:18:09;4.30;;;2.35;;
21270;SDS011;10795;50.796;3.860;2023-10-19T14:20:36;4.18;;;1.85;;
21270;SDS011;10795;50.796;3.860;2023-10-19T14:23:04;2.28;;;1.45;;
21270;SDS011;10795;50.796;3.860;2023-10-19T14:25:30;3.53;;;1.48;;
21270;SDS011;10795;50.796;3.860;2023-10-19T14:27:56;1.73;;;0.90;;
21270;SDS011;10795;50.796;3.860;2023-10-19T14:30:27;1.90;;;0.82;;
21270;SDS011;10795;50.796;3.860;2023-10-19T14:32:53;2.72;;;0.93;;
21270;SDS011;10795;50.796;3.860;2023-10-19T14:35:20;2.33;;;0.80;;
21270;SDS011;10795;50.796;3.860;2023-10-19T14:37:50;3.13;;;0.90;;
21270;SDS011;10795;50.796;3.860;2023-10-19T14:40:27;1.30;;;0.90;;
21270;SDS011;10795;50.796;3.860;2023-10-19T14:42:56;3.50;;;0.82;;
21270;SDS011;10795;50.796;3.860;2023-10-19T14:45:23;1.58;;;0.70;;
21270;SDS011;10795;50.796;3.860;2023-10-19T14:47:57;1.95;;;0.70;;
21270;SDS011;10795;50.796;3.860;2023-10-19T14:50:28;3.55;;;0.80;;
21270;SDS011;10795;50.796;3.860;2023-10-19T14:52:57;6.17;;;1.10;;
21270;SDS011;10795;50.796;3.860;2023-10-19T14:55:27;3.22;;;0.65;;
21270;SDS011;10795;50.796;3.860;2023-10-19T14:57:54;3.45;;;1.10;;
21270;SDS011;10795;50.796;3.860;2023-10-19T15:00:24;4.00;;;1.23;;
21270;SDS011;10795;50.796;3.860;2023-10-19T15:02:52;2.67;;;0.70;;
21270;SDS011;10795;50.796;3.860;2023-10-19T15:05:26;2.80;;;0.70;;
21270;SDS011;10795;50.796;3.860;2023-10-19T15:07:55;2.70;;;0.80;;
21270;SDS011;10795;50.796;3.860;2023-10-19T15:10:26;3.40;;;0.93;;
21270;SDS011;10795;50.796;3.860;2023-10-19T15:12:55;4.55;;;0.73;;
21270;SDS011;10795;50.796;3.860;2023-10-19T15:15:26;2.17;;;0.70;;
21270;SDS011;10795;50.796;3.860;2023-10-19T15:17:53;1.58;;;0.75;;
21270;SDS011;10795;50.796;3.860;2023-10-19T15:20:26;3.42;;;0.70;;
21270;SDS011;10795;50.796;3.860;2023-10-19T15:22:53;2.83;;;0.70;;
21270;SDS011;10795;50.796;3.860;2023-10-19T15:25:19;1.65;;;0.65;;
21270;SDS011;10795;50.796;3.860;2023-10-19T15:27:46;1.52;;;0.60;;
21270;SDS011;10795;50.796;3.860;2023-10-19T15:30:16;3.60;;;0.80;;
21270;SDS011;10795;50.796;3.860;2023-10-19T15:32:46;3.50;;;0.60;;